sensor_id;sensor_type;location;lat;lon;timestamp;P1;durP1;ratioP1;P2;durP2;ratioP2
57989;SDS011;58373;51.824;5.564;2022-07-24T00:02:12;14.18;;;12.77;;
57989;SDS011;58373;51.824;5.564;2022-07-24T00:04:38;14.18;;;12.68;;
57989;SDS011;58373;51.824;5.564;2022-07-24T00:07:03;14.20;;;12.90;;
57989;SDS011;58373;51.824;5.564;2022-07-24T00:09:28;14.02;;;12.73;;
57989;SDS011;58373;51.824;5.564;2022-07-24T00:11:54;14.35;;;12.48;;
57989;SDS011;58373;51.824;5.564;2022-07-24T00:14:19;14.40;;;12.95;;
57989;SDS011;58373;51.824;5.564;2022-07-24T00:16:45;14.48;;;13.07;;
57989;SDS011;58373;51.824;5.564;2022-07-24T00:19:10;14.50;;;13.10;;
57989;SDS011;58373;51.824;5.564;2022-07-24T00:21:35;14.52;;;13.23;;
57989;SDS011;58373;51.824;5.564;2022-07-24T00:24:01;14.90;;;13.40;;
57989;SDS011;58373;51.824;5.564;2022-07-24T00:26:26;14.70;;;13.30;;
57989;SDS011;58373;51.824;5.564;2022-07-24T00:28:52;15.70;;;14.20;;
57989;SDS011;58373;51.824;5.564;2022-07-24T00:31:17;14.95;;;13.65;;
57989;SDS011;58373;51.824;5.564;2022-07-24T00:33:42;15.40;;;13.90;;
57989;SDS011;58373;51.824;5.564;2022-07-24T00:36:08;15.98;;;14.38;;
57989;SDS011;58373;51.824;5.564;2022-07-24T00:38:33;16.63;;;15.02;;
57989;SDS011;58373;51.824;5.564;2022-07-24T00:40:59;16.05;;;14.38;;
57989;SDS011;58373;51.824;5.564;2022-07-24T00:43:24;16.27;;;14.68;;
57989;SDS011;58373;51.824;5.564;2022-07-24T00:45:50;16.75;;;15.15;;
57989;SDS011;58373;51.824;5.564;2022-07-24T00:48:15;16.52;;;14.98;;
57989;SDS011;58373;51.824;5.564;2022-07-24T00:50:41;16.13;;;14.70;;
57989;SDS011;58373;51.824;5.564;2022-07-24T00:53:08;16.77;;;15.00;;
57989;SDS011;58373;51.824;5.564;2022-07-24T00:55:34;16.75;;;15.10;;
57989;SDS011;58373;51.824;5.564;2022-07-24T00:58:00;16.50;;;15.00;;
57989;SDS011;58373;51.824;5.564;2022-07-24T01:00:25;16.98;;;15.43;;
57989;SDS011;58373;51.824;5.564;2022-07-24T01:02:51;17.40;;;15.80;;
57989;SDS011;58373;51.824;5.564;2022-07-24T01:05:17;17.42;;;15.82;;
57989;SDS011;58373;51.824;5.564;2022-07-24T01:07:42;17.33;;;15.77;;
57989;SDS011;58373;51.824;5.564;2022-07-24T01:10:08;17.60;;;16.02;;
57989;SDS011;58373;51.824;5.564;2022-07-24T01:12:34;17.73;;;15.98;;
57989;SDS011;58373;51.824;5.564;2022-07-24T01:15:01;18.63;;;16.83;;
57989;SDS011;58373;51.824;5.564;2022-07-24T01:17:30;17.63;;;15.90;;
57989;SDS011;58373;51.824;5.564;2022-07-24T01:19:57;17.75;;;16.20;;
57989;SDS011;58373;51.824;5.564;2022-07-24T01:22:23;19.13;;;17.30;;
57989;SDS011;58373;51.824;5.564;2022-07-24T01:24:50;19.07;;;17.17;;
57989;SDS011;58373;51.824;5.564;2022-07-24T01:27:16;18.30;;;16.50;;
57989;SDS011;58373;51.824;5.564;2022-07-24T01:29:42;18.95;;;17.08;;
57989;SDS011;58373;51.824;5.564;2022-07-24T01:32:08;18.83;;;17.13;;
57989;SDS011;58373;51.824;5.564;2022-07-24T01:34:33;18.83;;;16.92;;
57989;SDS011;58373;51.824;5.564;2022-07-24T01:36:59;18.58;;;16.95;;
57989;SDS011;58373;51.824;5.564;2022-07-24T01:39:25;19.00;;;17.20;;
57989;SDS011;58373;51.824;5.564;2022-07-24T01:41:51;18.95;;;17.15;;
57989;SDS011;58373;51.824;5.564;2022-07-24T01:44:16;19.20;;;17.35;;
57989;SDS011;58373;51.824;5.564;2022-07-24T01:46:45;19.13;;;17.30;;
57989;SDS011;58373;51.824;5.564;2022-07-24T01:49:10;18.77;;;16.98;;
57989;SDS011;58373;51.824;5.564;2022-07-24T01:51:36;17.90;;;16.30;;
57989;SDS011;58373;51.824;5.564;2022-07-24T01:54:02;19.15;;;17.33;;
57989;SDS011;58373;51.824;5.564;2022-07-24T01:56:28;18.60;;;16.70;;
57989;SDS011;58373;51.824;5.564;2022-07-24T01:58:54;19.35;;;17.40;;
57989;SDS011;58373;51.824;5.564;2022-07-24T02:01:20;18.77;;;17.08;;
57989;SDS011;58373;51.824;5.564;2022-07-24T02:03:45;19.00;;;17.20;;
57989;SDS011;58373;51.824;5.564;2022-07-24T02:06:11;19.15;;;17.35;;
57989;SDS011;58373;51.824;5.564;2022-07-24T02:08:37;19.25;;;17.45;;
57989;SDS011;58373;51.824;5.564;2022-07-24T02:11:02;19.58;;;17.88;;
57989;SDS011;58373;51.824;5.564;2022-07-24T02:13:28;19.13;;;17.33;;
57989;SDS011;58373;51.824;5.564;2022-07-24T02:15:53;20.27;;;18.38;;
57989;SDS011;58373;51.824;5.564;2022-07-24T02:18:19;20.40;;;18.50;;
57989;SDS011;58373;51.824;5.564;2022-07-24T02:20:44;20.63;;;18.65;;
57989;SDS011;58373;51.824;5.564;2022-07-24T02:23:10;19.63;;;17.83;;
57989;SDS011;58373;51.824;5.564;2022-07-24T02:25:35;18.70;;;17.00;;
57989;SDS011;58373;51.824;5.564;2022-07-24T02:28:01;19.80;;;18.00;;
57989;SDS011;58373;51.824;5.564;2022-07-24T02:30:26;20.27;;;18.48;;
57989;SDS011;58373;51.824;5.564;2022-07-24T02:32:51;20.08;;;18.23;;
57989;SDS011;58373;51.824;5.564;2022-07-24T02:35:17;20.02;;;18.23;;
57989;SDS011;58373;51.824;5.564;2022-07-24T02:37:43;19.48;;;17.73;;
57989;SDS011;58373;51.824;5.564;2022-07-24T02:40:10;20.40;;;18.50;;
57989;SDS011;58373;51.824;5.564;2022-07-24T02:42:36;20.60;;;18.50;;
57989;SDS011;58373;51.824;5.564;2022-07-24T02:45:02;20.20;;;18.20;;
57989;SDS011;58373;51.824;5.564;2022-07-24T02:47:29;21.17;;;19.17;;
57989;SDS011;58373;51.824;5.564;2022-07-24T02:49:54;22.15;;;20.15;;
57989;SDS011;58373;51.824;5.564;2022-07-24T02:52:20;21.88;;;19.88;;
57989;SDS011;58373;51.824;5.564;2022-07-24T02:54:45;22.40;;;20.42;;
57989;SDS011;58373;51.824;5.564;2022-07-24T02:57:11;22.90;;;20.90;;
57989;SDS011;58373;51.824;5.564;2022-07-24T02:59:36;22.70;;;20.60;;
57989;SDS011;58373;51.824;5.564;2022-07-24T03:02:02;22.67;;;20.55;;
57989;SDS011;58373;51.824;5.564;2022-07-24T03:04:27;23.35;;;21.05;;
57989;SDS011;58373;51.824;5.564;2022-07-24T03:06:52;22.40;;;20.25;;
57989;SDS011;58373;51.824;5.564;2022-07-24T03:09:18;22.35;;;20.42;;
57989;SDS011;58373;51.824;5.564;2022-07-24T03:11:44;22.58;;;20.52;;
57989;SDS011;58373;51.824;5.564;2022-07-24T03:14:10;23.05;;;20.90;;
57989;SDS011;58373;51.824;5.564;2022-07-24T03:16:35;22.58;;;20.50;;
57989;SDS011;58373;51.824;5.564;2022-07-24T03:19:02;22.60;;;20.55;;
57989;SDS011;58373;51.824;5.564;2022-07-24T03:21:27;22.63;;;20.73;;
57989;SDS011;58373;51.824;5.564;2022-07-24T03:23:53;23.33;;;21.02;;
57989;SDS011;58373;51.824;5.564;2022-07-24T03:26:18;22.63;;;20.58;;
57989;SDS011;58373;51.824;5.564;2022-07-24T03:28:43;23.02;;;20.83;;
57989;SDS011;58373;51.824;5.564;2022-07-24T03:31:09;22.20;;;20.10;;
57989;SDS011;58373;51.824;5.564;2022-07-24T03:33:34;20.73;;;18.83;;
57989;SDS011;58373;51.824;5.564;2022-07-24T03:36:00;21.02;;;19.15;;
57989;SDS011;58373;51.824;5.564;2022-07-24T03:38:26;20.25;;;18.35;;
57989;SDS011;58373;51.824;5.564;2022-07-24T03:40:51;20.83;;;18.92;;
57989;SDS011;58373;51.824;5.564;2022-07-24T03:43:17;20.58;;;18.67;;
57989;SDS011;58373;51.824;5.564;2022-07-24T03:45:42;20.20;;;18.30;;
57989;SDS011;58373;51.824;5.564;2022-07-24T03:48:08;20.95;;;18.92;;
57989;SDS011;58373;51.824;5.564;2022-07-24T03:50:34;19.65;;;17.73;;
57989;SDS011;58373;51.824;5.564;2022-07-24T03:52:59;19.45;;;17.65;;
57989;SDS011;58373;51.824;5.564;2022-07-24T03:55:25;20.75;;;18.85;;
57989;SDS011;58373;51.824;5.564;2022-07-24T03:57:50;21.35;;;19.45;;
57989;SDS011;58373;51.824;5.564;2022-07-24T04:00:16;21.90;;;19.90;;
57989;SDS011;58373;51.824;5.564;2022-07-24T04:02:41;21.08;;;19.20;;
57989;SDS011;58373;51.824;5.564;2022-07-24T04:05:07;22.67;;;20.38;;
57989;SDS011;58373;51.824;5.564;2022-07-24T04:07:34;22.40;;;20.40;;
57989;SDS011;58373;51.824;5.564;2022-07-24T04:10:04;23.23;;;21.05;;
57989;SDS011;58373;51.824;5.564;2022-07-24T04:12:30;22.80;;;20.70;;
57989;SDS011;58373;51.824;5.564;2022-07-24T04:14:55;23.77;;;21.67;;
57989;SDS011;58373;51.824;5.564;2022-07-24T04:17:21;23.33;;;21.33;;
57989;SDS011;58373;51.824;5.564;2022-07-24T04:19:46;23.98;;;21.77;;
57989;SDS011;58373;51.824;5.564;2022-07-24T04:22:11;25.70;;;23.33;;
57989;SDS011;58373;51.824;5.564;2022-07-24T04:24:37;25.00;;;22.80;;
57989;SDS011;58373;51.824;5.564;2022-07-24T04:27:02;25.20;;;22.90;;
57989;SDS011;58373;51.824;5.564;2022-07-24T04:29:28;26.15;;;23.85;;
57989;SDS011;58373;51.824;5.564;2022-07-24T04:31:53;25.83;;;23.50;;
57989;SDS011;58373;51.824;5.564;2022-07-24T04:34:18;27.77;;;25.15;;
57989;SDS011;58373;51.824;5.564;2022-07-24T04:36:44;27.40;;;24.90;;
57989;SDS011;58373;51.824;5.564;2022-07-24T04:39:09;27.05;;;24.65;;
57989;SDS011;58373;51.824;5.564;2022-07-24T04:41:35;27.60;;;25.10;;
57989;SDS011;58373;51.824;5.564;2022-07-24T04:44:00;27.95;;;25.48;;
57989;SDS011;58373;51.824;5.564;2022-07-24T04:46:26;27.92;;;25.38;;
57989;SDS011;58373;51.824;5.564;2022-07-24T04:48:52;27.42;;;25.02;;
57989;SDS011;58373;51.824;5.564;2022-07-24T04:51:17;26.95;;;24.45;;
57989;SDS011;58373;51.824;5.564;2022-07-24T04:53:43;27.88;;;25.38;;
57989;SDS011;58373;51.824;5.564;2022-07-24T04:56:08;28.92;;;26.23;;
57989;SDS011;58373;51.824;5.564;2022-07-24T04:58:33;28.90;;;26.20;;
57989;SDS011;58373;51.824;5.564;2022-07-24T05:00:59;29.05;;;26.35;;
57989;SDS011;58373;51.824;5.564;2022-07-24T05:03:25;28.65;;;25.90;;
57989;SDS011;58373;51.824;5.564;2022-07-24T05:05:50;28.92;;;26.20;;
57989;SDS011;58373;51.824;5.564;2022-07-24T05:08:16;29.08;;;26.38;;
57989;SDS011;58373;51.824;5.564;2022-07-24T05:10:41;29.75;;;27.05;;
57989;SDS011;58373;51.824;5.564;2022-07-24T05:13:07;30.05;;;27.25;;
57989;SDS011;58373;51.824;5.564;2022-07-24T05:15:32;29.73;;;26.98;;
57989;SDS011;58373;51.824;5.564;2022-07-24T05:17:57;29.88;;;27.13;;
57989;SDS011;58373;51.824;5.564;2022-07-24T05:20:23;30.58;;;27.65;;
57989;SDS011;58373;51.824;5.564;2022-07-24T05:22:48;30.27;;;27.50;;
57989;SDS011;58373;51.824;5.564;2022-07-24T05:25:14;30.02;;;27.33;;
57989;SDS011;58373;51.824;5.564;2022-07-24T05:27:40;31.48;;;28.38;;
57989;SDS011;58373;51.824;5.564;2022-07-24T05:30:05;30.45;;;27.63;;
57989;SDS011;58373;51.824;5.564;2022-07-24T05:32:31;30.23;;;27.40;;
57989;SDS011;58373;51.824;5.564;2022-07-24T05:34:56;29.70;;;26.80;;
57989;SDS011;58373;51.824;5.564;2022-07-24T05:37:22;29.77;;;26.92;;
57989;SDS011;58373;51.824;5.564;2022-07-24T05:39:48;28.08;;;25.45;;
57989;SDS011;58373;51.824;5.564;2022-07-24T05:42:13;27.67;;;25.17;;
57989;SDS011;58373;51.824;5.564;2022-07-24T05:44:38;28.63;;;25.75;;
57989;SDS011;58373;51.824;5.564;2022-07-24T05:47:04;26.88;;;24.38;;
57989;SDS011;58373;51.824;5.564;2022-07-24T05:49:30;26.17;;;23.48;;
57989;SDS011;58373;51.824;5.564;2022-07-24T05:51:55;25.42;;;23.13;;
57989;SDS011;58373;51.824;5.564;2022-07-24T05:54:20;25.20;;;22.80;;
57989;SDS011;58373;51.824;5.564;2022-07-24T05:56:46;24.10;;;21.65;;
57989;SDS011;58373;51.824;5.564;2022-07-24T05:59:11;24.08;;;21.70;;
57989;SDS011;58373;51.824;5.564;2022-07-24T06:01:36;23.92;;;21.48;;
57989;SDS011;58373;51.824;5.564;2022-07-24T06:04:02;23.45;;;21.13;;
57989;SDS011;58373;51.824;5.564;2022-07-24T06:06:27;24.92;;;22.52;;
57989;SDS011;58373;51.824;5.564;2022-07-24T06:08:53;23.25;;;21.05;;
57989;SDS011;58373;51.824;5.564;2022-07-24T06:11:18;25.05;;;22.40;;
57989;SDS011;58373;51.824;5.564;2022-07-24T06:13:45;23.63;;;21.38;;
57989;SDS011;58373;51.824;5.564;2022-07-24T06:16:10;23.33;;;21.13;;
57989;SDS011;58373;51.824;5.564;2022-07-24T06:18:36;22.98;;;20.80;;
57989;SDS011;58373;51.824;5.564;2022-07-24T06:21:02;23.55;;;21.30;;
57989;SDS011;58373;51.824;5.564;2022-07-24T06:23:27;22.27;;;20.17;;
57989;SDS011;58373;51.824;5.564;2022-07-24T06:25:53;21.10;;;19.10;;
57989;SDS011;58373;51.824;5.564;2022-07-24T06:28:18;20.30;;;18.10;;
57989;SDS011;58373;51.824;5.564;2022-07-24T06:30:45;18.83;;;16.92;;
57989;SDS011;58373;51.824;5.564;2022-07-24T06:33:10;19.23;;;17.42;;
57989;SDS011;58373;51.824;5.564;2022-07-24T06:35:35;19.33;;;17.42;;
57989;SDS011;58373;51.824;5.564;2022-07-24T06:38:01;18.77;;;16.98;;
57989;SDS011;58373;51.824;5.564;2022-07-24T06:40:26;19.70;;;17.80;;
57989;SDS011;58373;51.824;5.564;2022-07-24T06:42:52;19.92;;;17.92;;
57989;SDS011;58373;51.824;5.564;2022-07-24T06:45:18;20.50;;;18.40;;
57989;SDS011;58373;51.824;5.564;2022-07-24T06:47:44;19.73;;;17.70;;
57989;SDS011;58373;51.824;5.564;2022-07-24T06:50:10;19.65;;;17.65;;
57989;SDS011;58373;51.824;5.564;2022-07-24T06:52:36;20.65;;;18.45;;
57989;SDS011;58373;51.824;5.564;2022-07-24T06:55:02;19.40;;;17.08;;
57989;SDS011;58373;51.824;5.564;2022-07-24T06:57:28;18.85;;;16.83;;
57989;SDS011;58373;51.824;5.564;2022-07-24T06:59:54;20.27;;;18.25;;
57989;SDS011;58373;51.824;5.564;2022-07-24T07:02:20;20.35;;;17.42;;
57989;SDS011;58373;51.824;5.564;2022-07-24T07:04:46;19.20;;;17.30;;
57989;SDS011;58373;51.824;5.564;2022-07-24T07:07:12;19.17;;;17.38;;
57989;SDS011;58373;51.824;5.564;2022-07-24T07:09:37;19.17;;;17.25;;
57989;SDS011;58373;51.824;5.564;2022-07-24T07:12:03;19.55;;;17.55;;
57989;SDS011;58373;51.824;5.564;2022-07-24T07:14:29;19.00;;;17.10;;
57989;SDS011;58373;51.824;5.564;2022-07-24T07:16:54;18.65;;;16.67;;
57989;SDS011;58373;51.824;5.564;2022-07-24T07:19:20;18.08;;;16.27;;
57989;SDS011;58373;51.824;5.564;2022-07-24T07:21:45;19.13;;;17.23;;
57989;SDS011;58373;51.824;5.564;2022-07-24T07:24:10;18.90;;;17.00;;
57989;SDS011;58373;51.824;5.564;2022-07-24T07:26:36;17.02;;;15.27;;
57989;SDS011;58373;51.824;5.564;2022-07-24T07:29:01;17.45;;;15.80;;
57989;SDS011;58373;51.824;5.564;2022-07-24T07:31:27;16.63;;;14.93;;
57989;SDS011;58373;51.824;5.564;2022-07-24T07:33:52;15.80;;;14.27;;
57989;SDS011;58373;51.824;5.564;2022-07-24T07:36:18;14.88;;;13.27;;
57989;SDS011;58373;51.824;5.564;2022-07-24T07:38:43;15.48;;;13.88;;
57989;SDS011;58373;51.824;5.564;2022-07-24T07:41:09;13.68;;;12.23;;
57989;SDS011;58373;51.824;5.564;2022-07-24T07:43:34;13.40;;;11.63;;
57989;SDS011;58373;51.824;5.564;2022-07-24T07:46:00;12.68;;;11.38;;
57989;SDS011;58373;51.824;5.564;2022-07-24T07:48:25;12.00;;;10.20;;
57989;SDS011;58373;51.824;5.564;2022-07-24T07:50:51;14.02;;;10.43;;
57989;SDS011;58373;51.824;5.564;2022-07-24T07:53:17;12.48;;;11.20;;
57989;SDS011;58373;51.824;5.564;2022-07-24T07:55:43;12.60;;;11.30;;
57989;SDS011;58373;51.824;5.564;2022-07-24T07:58:09;12.68;;;11.15;;
57989;SDS011;58373;51.824;5.564;2022-07-24T08:00:35;11.45;;;10.13;;
57989;SDS011;58373;51.824;5.564;2022-07-24T08:03:01;11.65;;;10.32;;
57989;SDS011;58373;51.824;5.564;2022-07-24T08:05:27;11.15;;;9.57;;
57989;SDS011;58373;51.824;5.564;2022-07-24T08:07:53;11.05;;;9.55;;
57989;SDS011;58373;51.824;5.564;2022-07-24T08:10:18;10.70;;;9.60;;
57989;SDS011;58373;51.824;5.564;2022-07-24T08:12:43;10.10;;;8.38;;
57989;SDS011;58373;51.824;5.564;2022-07-24T08:15:09;10.65;;;7.97;;
57989;SDS011;58373;51.824;5.564;2022-07-24T08:17:35;9.85;;;7.97;;
57989;SDS011;58373;51.824;5.564;2022-07-24T08:20:00;9.70;;;8.18;;
57989;SDS011;58373;51.824;5.564;2022-07-24T08:22:26;9.18;;;8.07;;
57989;SDS011;58373;51.824;5.564;2022-07-24T08:24:51;10.68;;;8.80;;
57989;SDS011;58373;51.824;5.564;2022-07-24T08:27:17;9.77;;;8.57;;
57989;SDS011;58373;51.824;5.564;2022-07-24T08:29:42;9.73;;;8.55;;
57989;SDS011;58373;51.824;5.564;2022-07-24T08:32:07;8.88;;;7.30;;
57989;SDS011;58373;51.824;5.564;2022-07-24T08:34:33;8.18;;;6.75;;
57989;SDS011;58373;51.824;5.564;2022-07-24T08:36:58;8.20;;;6.85;;
57989;SDS011;58373;51.824;5.564;2022-07-24T08:39:24;8.55;;;6.55;;
57989;SDS011;58373;51.824;5.564;2022-07-24T08:41:49;8.20;;;6.43;;
57989;SDS011;58373;51.824;5.564;2022-07-24T08:44:15;6.90;;;5.78;;
57989;SDS011;58373;51.824;5.564;2022-07-24T08:46:41;7.25;;;5.13;;
57989;SDS011;58373;51.824;5.564;2022-07-24T08:49:07;7.78;;;5.80;;
57989;SDS011;58373;51.824;5.564;2022-07-24T08:51:36;8.50;;;6.40;;
57989;SDS011;58373;51.824;5.564;2022-07-24T08:54:03;6.93;;;5.65;;
57989;SDS011;58373;51.824;5.564;2022-07-24T08:56:29;7.50;;;5.40;;
57989;SDS011;58373;51.824;5.564;2022-07-24T08:58:55;7.18;;;5.80;;
57989;SDS011;58373;51.824;5.564;2022-07-24T09:01:21;10.88;;;6.00;;
57989;SDS011;58373;51.824;5.564;2022-07-24T09:03:46;7.00;;;5.15;;
57989;SDS011;58373;51.824;5.564;2022-07-24T09:06:13;6.60;;;5.30;;
57989;SDS011;58373;51.824;5.564;2022-07-24T09:08:40;7.25;;;5.25;;
57989;SDS011;58373;51.824;5.564;2022-07-24T09:11:06;6.55;;;5.13;;
57989;SDS011;58373;51.824;5.564;2022-07-24T09:13:34;6.70;;;5.47;;
57989;SDS011;58373;51.824;5.564;2022-07-24T09:16:19;7.07;;;5.47;;
57989;SDS011;58373;51.824;5.564;2022-07-24T09:18:47;8.38;;;5.72;;
57989;SDS011;58373;51.824;5.564;2022-07-24T09:21:14;6.95;;;5.10;;
57989;SDS011;58373;51.824;5.564;2022-07-24T09:23:41;7.03;;;5.35;;
57989;SDS011;58373;51.824;5.564;2022-07-24T09:26:06;7.00;;;4.70;;
57989;SDS011;58373;51.824;5.564;2022-07-24T09:28:48;5.18;;;4.25;;
57989;SDS011;58373;51.824;5.564;2022-07-24T09:31:15;6.50;;;4.45;;
57989;SDS011;58373;51.824;5.564;2022-07-24T09:33:41;5.78;;;4.30;;
57989;SDS011;58373;51.824;5.564;2022-07-24T09:36:14;5.22;;;4.28;;
57989;SDS011;58373;51.824;5.564;2022-07-24T09:38:48;4.38;;;3.45;;
57989;SDS011;58373;51.824;5.564;2022-07-24T09:41:21;5.70;;;3.90;;
57989;SDS011;58373;51.824;5.564;2022-07-24T09:44:00;5.55;;;3.90;;
57989;SDS011;58373;51.824;5.564;2022-07-24T09:46:27;5.93;;;3.60;;
57989;SDS011;58373;51.824;5.564;2022-07-24T09:48:55;4.35;;;3.35;;
57989;SDS011;58373;51.824;5.564;2022-07-24T09:51:22;5.88;;;3.60;;
57989;SDS011;58373;51.824;5.564;2022-07-24T09:53:53;4.70;;;3.40;;
57989;SDS011;58373;51.824;5.564;2022-07-24T09:56:23;6.18;;;3.53;;
57989;SDS011;58373;51.824;5.564;2022-07-24T09:58:50;4.57;;;3.20;;
57989;SDS011;58373;51.824;5.564;2022-07-24T10:01:18;4.38;;;3.30;;
57989;SDS011;58373;51.824;5.564;2022-07-24T10:03:46;5.38;;;3.20;;
57989;SDS011;58373;51.824;5.564;2022-07-24T10:06:15;4.00;;;3.08;;
57989;SDS011;58373;51.824;5.564;2022-07-24T10:08:43;4.28;;;3.33;;
57989;SDS011;58373;51.824;5.564;2022-07-24T10:11:10;4.95;;;3.13;;
57989;SDS011;58373;51.824;5.564;2022-07-24T10:13:36;3.83;;;2.97;;
57989;SDS011;58373;51.824;5.564;2022-07-24T10:21:19;6.00;;;3.40;;
57989;SDS011;58373;51.824;5.564;2022-07-24T10:26:38;4.22;;;3.25;;
57989;SDS011;58373;51.824;5.564;2022-07-24T10:29:23;4.43;;;3.30;;
57989;SDS011;58373;51.824;5.564;2022-07-24T10:31:50;6.07;;;3.33;;
57989;SDS011;58373;51.824;5.564;2022-07-24T10:39:30;4.47;;;3.15;;
57989;SDS011;58373;51.824;5.564;2022-07-24T10:42:04;4.55;;;3.20;;
57989;SDS011;58373;51.824;5.564;2022-07-24T10:44:31;4.28;;;3.22;;
57989;SDS011;58373;51.824;5.564;2022-07-24T10:52:21;4.60;;;3.20;;
57989;SDS011;58373;51.824;5.564;2022-07-24T10:55:18;4.35;;;3.10;;
57989;SDS011;58373;51.824;5.564;2022-07-24T10:58:02;4.47;;;3.25;;
57989;SDS011;58373;51.824;5.564;2022-07-24T11:00:34;5.47;;;3.20;;
57989;SDS011;58373;51.824;5.564;2022-07-24T11:03:03;4.00;;;3.10;;
57989;SDS011;58373;51.824;5.564;2022-07-24T11:05:32;5.13;;;3.00;;
57989;SDS011;58373;51.824;5.564;2022-07-24T11:10:54;4.40;;;3.25;;
57989;SDS011;58373;51.824;5.564;2022-07-24T11:18:35;3.58;;;2.75;;
57989;SDS011;58373;51.824;5.564;2022-07-24T11:21:01;5.75;;;2.83;;
57989;SDS011;58373;51.824;5.564;2022-07-24T11:23:26;5.90;;;3.45;;
57989;SDS011;58373;51.824;5.564;2022-07-24T11:26:28;3.67;;;2.92;;
57989;SDS011;58373;51.824;5.564;2022-07-24T11:31:42;3.58;;;2.67;;
57989;SDS011;58373;51.824;5.564;2022-07-24T11:34:09;4.00;;;2.70;;
57989;SDS011;58373;51.824;5.564;2022-07-24T11:36:36;4.03;;;2.78;;
57989;SDS011;58373;51.824;5.564;2022-07-24T11:39:04;4.10;;;2.88;;
57989;SDS011;58373;51.824;5.564;2022-07-24T11:47:23;3.10;;;2.67;;
57989;SDS011;58373;51.824;5.564;2022-07-24T11:49:53;3.10;;;2.80;;
57989;SDS011;58373;51.824;5.564;2022-07-24T11:54:55;3.92;;;2.95;;
57989;SDS011;58373;51.824;5.564;2022-07-24T11:57:29;4.15;;;2.90;;
57989;SDS011;58373;51.824;5.564;2022-07-24T11:59:56;3.70;;;2.70;;
57989;SDS011;58373;51.824;5.564;2022-07-24T12:02:22;3.90;;;2.80;;
57989;SDS011;58373;51.824;5.564;2022-07-24T12:04:48;3.50;;;2.60;;
57989;SDS011;58373;51.824;5.564;2022-07-24T12:07:16;10.00;;;2.80;;
57989;SDS011;58373;51.824;5.564;2022-07-24T12:09:53;4.32;;;2.70;;
57989;SDS011;58373;51.824;5.564;2022-07-24T12:12:21;4.43;;;2.58;;
57989;SDS011;58373;51.824;5.564;2022-07-24T12:15:16;3.83;;;2.55;;
57989;SDS011;58373;51.824;5.564;2022-07-24T12:17:53;4.35;;;2.60;;
57989;SDS011;58373;51.824;5.564;2022-07-24T12:20:27;3.40;;;2.55;;
57989;SDS011;58373;51.824;5.564;2022-07-24T12:22:53;3.25;;;2.47;;
57989;SDS011;58373;51.824;5.564;2022-07-24T12:25:19;3.67;;;2.60;;
57989;SDS011;58373;51.824;5.564;2022-07-24T12:27:45;3.47;;;2.40;;
57989;SDS011;58373;51.824;5.564;2022-07-24T12:33:09;2.80;;;2.40;;
57989;SDS011;58373;51.824;5.564;2022-07-24T12:38:36;3.33;;;2.40;;
57989;SDS011;58373;51.824;5.564;2022-07-24T12:41:14;4.25;;;2.30;;
57989;SDS011;58373;51.824;5.564;2022-07-24T12:43:48;3.65;;;2.30;;
57989;SDS011;58373;51.824;5.564;2022-07-24T12:46:14;3.30;;;2.10;;
57989;SDS011;58373;51.824;5.564;2022-07-24T12:48:39;5.20;;;2.70;;
57989;SDS011;58373;51.824;5.564;2022-07-24T12:51:06;3.85;;;2.50;;
57989;SDS011;58373;51.824;5.564;2022-07-24T12:53:38;3.25;;;2.53;;
57989;SDS011;58373;51.824;5.564;2022-07-24T12:56:12;3.92;;;2.58;;
57989;SDS011;58373;51.824;5.564;2022-07-24T13:01:20;3.70;;;2.45;;
57989;SDS011;58373;51.824;5.564;2022-07-24T13:03:54;2.83;;;2.33;;
57989;SDS011;58373;51.824;5.564;2022-07-24T13:06:29;4.18;;;2.58;;
57989;SDS011;58373;51.824;5.564;2022-07-24T13:08:56;3.00;;;2.33;;
57989;SDS011;58373;51.824;5.564;2022-07-24T13:11:22;3.05;;;2.35;;
57989;SDS011;58373;51.824;5.564;2022-07-24T13:13:47;3.38;;;2.50;;
57989;SDS011;58373;51.824;5.564;2022-07-24T13:16:15;3.70;;;2.30;;
57989;SDS011;58373;51.824;5.564;2022-07-24T13:18:41;2.90;;;2.40;;
57989;SDS011;58373;51.824;5.564;2022-07-24T13:21:06;4.60;;;2.50;;
57989;SDS011;58373;51.824;5.564;2022-07-24T13:23:31;4.35;;;2.30;;
57989;SDS011;58373;51.824;5.564;2022-07-24T13:25:57;3.28;;;2.40;;
57989;SDS011;58373;51.824;5.564;2022-07-24T13:28:22;4.68;;;2.67;;
57989;SDS011;58373;51.824;5.564;2022-07-24T13:30:47;4.22;;;2.50;;
57989;SDS011;58373;51.824;5.564;2022-07-24T13:33:13;2.90;;;2.50;;
57989;SDS011;58373;51.824;5.564;2022-07-24T13:35:38;3.92;;;2.47;;
57989;SDS011;58373;51.824;5.564;2022-07-24T13:38:03;4.20;;;2.60;;
57989;SDS011;58373;51.824;5.564;2022-07-24T13:40:29;3.97;;;2.70;;
57989;SDS011;58373;51.824;5.564;2022-07-24T13:42:54;3.33;;;2.60;;
57989;SDS011;58373;51.824;5.564;2022-07-24T13:45:20;4.28;;;2.65;;
57989;SDS011;58373;51.824;5.564;2022-07-24T13:47:45;4.20;;;2.83;;
57989;SDS011;58373;51.824;5.564;2022-07-24T13:50:11;3.65;;;2.55;;
57989;SDS011;58373;51.824;5.564;2022-07-24T13:52:36;3.35;;;2.60;;
57989;SDS011;58373;51.824;5.564;2022-07-24T13:55:01;4.38;;;2.65;;
57989;SDS011;58373;51.824;5.564;2022-07-24T13:57:27;4.50;;;3.00;;
57989;SDS011;58373;51.824;5.564;2022-07-24T13:59:52;3.58;;;2.70;;
57989;SDS011;58373;51.824;5.564;2022-07-24T14:02:18;3.22;;;2.78;;
57989;SDS011;58373;51.824;5.564;2022-07-24T14:04:43;4.28;;;2.63;;
57989;SDS011;58373;51.824;5.564;2022-07-24T14:07:09;3.88;;;2.50;;
57989;SDS011;58373;51.824;5.564;2022-07-24T14:09:34;3.97;;;2.83;;
57989;SDS011;58373;51.824;5.564;2022-07-24T14:11:59;5.32;;;2.92;;
57989;SDS011;58373;51.824;5.564;2022-07-24T14:14:25;4.07;;;2.70;;
57989;SDS011;58373;51.824;5.564;2022-07-24T14:16:50;4.07;;;2.60;;
57989;SDS011;58373;51.824;5.564;2022-07-24T14:19:16;3.45;;;2.40;;
57989;SDS011;58373;51.824;5.564;2022-07-24T14:21:41;4.30;;;2.72;;
57989;SDS011;58373;51.824;5.564;2022-07-24T14:24:10;4.88;;;2.60;;
57989;SDS011;58373;51.824;5.564;2022-07-24T14:26:36;3.38;;;2.50;;
57989;SDS011;58373;51.824;5.564;2022-07-24T14:29:01;3.50;;;2.83;;
57989;SDS011;58373;51.824;5.564;2022-07-24T14:31:26;5.53;;;3.30;;
57989;SDS011;58373;51.824;5.564;2022-07-24T14:33:52;3.58;;;2.70;;
57989;SDS011;58373;51.824;5.564;2022-07-24T14:36:17;4.45;;;3.00;;
57989;SDS011;58373;51.824;5.564;2022-07-24T14:38:43;4.03;;;2.80;;
57989;SDS011;58373;51.824;5.564;2022-07-24T14:41:08;3.08;;;2.47;;
57989;SDS011;58373;51.824;5.564;2022-07-24T14:43:33;4.43;;;2.65;;
57989;SDS011;58373;51.824;5.564;2022-07-24T14:45:59;4.30;;;2.25;;
57989;SDS011;58373;51.824;5.564;2022-07-24T14:48:24;2.60;;;2.10;;
57989;SDS011;58373;51.824;5.564;2022-07-24T14:50:50;3.53;;;2.63;;
57989;SDS011;58373;51.824;5.564;2022-07-24T14:53:15;2.80;;;2.40;;
57989;SDS011;58373;51.824;5.564;2022-07-24T14:55:41;3.40;;;2.55;;
57989;SDS011;58373;51.824;5.564;2022-07-24T14:58:06;3.38;;;2.42;;
57989;SDS011;58373;51.824;5.564;2022-07-24T15:00:32;3.70;;;2.30;;
57989;SDS011;58373;51.824;5.564;2022-07-24T15:02:57;2.92;;;2.20;;
57989;SDS011;58373;51.824;5.564;2022-07-24T15:05:22;3.72;;;2.05;;
57989;SDS011;58373;51.824;5.564;2022-07-24T15:07:48;4.60;;;2.20;;
57989;SDS011;58373;51.824;5.564;2022-07-24T15:10:13;3.33;;;2.20;;
57989;SDS011;58373;51.824;5.564;2022-07-24T15:12:38;3.00;;;2.10;;
57989;SDS011;58373;51.824;5.564;2022-07-24T15:15:04;2.95;;;2.33;;
57989;SDS011;58373;51.824;5.564;2022-07-24T15:17:30;3.05;;;2.20;;